Time;durP1;ratioP1;P1;durP2;ratioP2;P2;SDS_P1;SDS_P2;PMS_P1;PMS_P2;Temp;Humidity;BMP_temperature;BMP_pressure;BME280_temperature;BME280_humidity;BME280_pressure;Samples;Min_cycle;Max_cycle;Signal;HPM_P1;HPM_P2
2022/09/14 00:01:15;;;;;;;12.73;2.50;;;16.70;1.00;;;;;;5052193;28;20288;-49
2022/09/14 00:03:42;;;;;;;7.97;2.73;;;16.70;99.90;;;;;;5051518;28;20718;-50
2022/09/14 00:06:12;;;;;;;6.77;2.47;;;16.70;1.00;;;;;;5050591;28;20233;-55
2022/09/14 00:08:40;;;;;;;3.90;2.50;;;16.70;1.00;;;;;;5051531;28;20210;-53
2022/09/14 00:11:10;;;;;;;9.60;2.50;;;16.70;99.90;;;;;;5051128;28;20210;-55
2022/09/14 00:13:38;;;;;;;5.60;2.10;;;16.70;1.00;;;;;;5051139;28;20594;-55
2022/09/14 00:16:07;;;;;;;4.90;1.93;;;16.60;1.00;;;;;;5051098;28;20225;-58
2022/09/14 00:18:34;;;;;;;4.57;1.87;;;16.60;99.90;;;;;;5051376;28;20209;-56
2022/09/14 00:21:02;;;;;;;4.33;1.80;;;16.60;1.00;;;;;;5051180;28;20214;-56
2022/09/14 00:23:29;;;;;;;4.87;1.87;;;16.50;1.00;;;;;;5051076;28;20676;-56
2022/09/14 00:26:02;;;;;;;7.50;2.10;;;16.50;1.00;;;;;;5050598;28;20233;-57
2022/09/14 00:28:29;;;;;;;5.70;1.53;;;16.50;1.00;;;;;;5053631;28;20213;-55
2022/09/14 00:30:56;;;;;;;5.43;1.70;;;16.50;99.90;;;;;;5054695;28;20263;-56
2022/09/14 00:33:22;;;;;;;5.43;1.53;;;16.50;1.00;;;;;;5054708;28;20209;-55
2022/09/14 00:35:49;;;;;;;5.77;1.80;;;16.50;99.90;;;;;;5054373;28;20229;-56
2022/09/14 00:38:16;;;;;;;7.40;2.37;;;16.50;1.00;;;;;;5054293;28;20205;-56
2022/09/14 00:40:42;;;;;;;4.17;1.87;;;16.50;92.30;;;;;;5054417;28;20267;-55
2022/09/14 00:43:14;;;;;;;4.70;1.90;;;16.50;99.90;;;;;;5054582;28;20205;-52
2022/09/14 00:45:41;;;;;;;5.33;1.90;;;16.50;1.00;;;;;;5054288;28;20237;-51
2022/09/14 00:48:08;;;;;;;6.20;1.80;;;16.40;99.90;;;;;;5054147;28;20201;-56
2022/09/14 00:50:35;;;;;;;3.47;1.87;;;16.40;1.00;;;;;;5054402;28;20212;-56
2022/09/14 00:53:03;;;;;;;4.63;1.80;;;16.40;99.90;;;;;;5054160;28;20661;-57
2022/09/14 00:55:30;;;;;;;8.03;2.17;;;16.40;99.90;;;;;;5054203;28;20221;-57
2022/09/14 00:57:57;;;;;;;3.10;1.80;;;16.40;99.90;;;;;;5053896;28;20206;-56
2022/09/14 01:00:27;;;;;;;7.10;1.90;;;16.40;99.90;;;;;;5054112;28;20735;-58
2022/09/14 01:02:54;;;;;;;8.40;2.00;;;16.50;1.00;;;;;;5054074;28;20209;-56
2022/09/14 01:05:35;;;;;;;5.27;2.17;;;16.40;99.90;;;;;;5053932;28;20275;-56
2022/09/14 01:08:16;;;;;;;5.27;1.50;;;16.40;99.90;;;;;;5053596;28;20881;-55
2022/09/14 01:10:56;;;;;;;7.73;1.63;;;16.40;99.90;;;;;;5054049;28;20264;-56
2022/09/14 01:13:33;;;;;;;6.00;1.70;;;16.50;99.90;;;;;;5053849;28;20209;-57
2022/09/14 01:16:10;;;;;;;5.03;2.17;;;16.50;99.90;;;;;;5053498;28;20291;-52
2022/09/14 01:18:41;;;;;;;6.10;1.87;;;16.40;1.00;;;;;;5054067;28;20212;-56
2022/09/14 01:21:11;;;;;;;5.03;1.57;;;16.40;1.00;;;;;;5053885;28;20256;-55
2022/09/14 01:23:46;;;;;;;7.10;1.60;;;16.30;8.60;;;;;;5053890;28;20210;-56
2022/09/14 01:26:42;;;;;;;6.13;1.80;;;16.30;99.90;;;;;;5053358;28;20255;-54
2022/09/14 01:29:14;;;;;;;3.90;1.70;;;16.40;99.90;;;;;;5052782;28;20216;-55
2022/09/14 01:31:49;;;;;;;4.00;1.77;;;16.30;1.00;;;;;;5053833;28;20209;-57
2022/09/14 01:34:24;;;;;;;3.67;1.40;;;16.30;21.00;;;;;;5053725;28;20563;-55
2022/09/14 01:36:57;;;;;;;6.60;1.67;;;16.30;99.90;;;;;;5053435;28;20224;-53
2022/09/14 01:39:24;;;;;;;5.87;1.60;;;16.20;99.90;;;;;;5055054;28;20210;-57
2022/09/14 01:41:53;;;;;;;4.17;1.77;;;16.20;99.90;;;;;;5061306;28;20680;-57
2022/09/14 01:44:25;;;;;;;5.67;1.80;;;16.10;1.00;;;;;;5059263;28;20210;-58
2022/09/14 01:46:54;;;;;;;6.40;1.70;;;16.10;1.00;;;;;;5052405;28;20359;-57
2022/09/14 01:49:27;;;;;;;6.17;1.63;;;16.00;1.60;;;;;;5053719;28;20202;-52
2022/09/14 01:51:58;;;;;;;6.53;1.90;;;16.00;99.90;;;;;;5053559;28;20293;-48
2022/09/14 01:54:28;;;;;;;4.03;1.57;;;15.90;99.90;;;;;;5053218;28;20263;-48
2022/09/14 01:57:00;;;;;;;5.10;1.50;;;15.80;99.90;;;;;;5053043;28;20222;-52
2022/09/14 01:59:31;;;;;;;8.53;1.97;;;15.80;1.00;;;;;;5053295;28;20672;-51
2022/09/14 02:02:02;;;;;;;11.97;1.83;;;15.70;99.90;;;;;;5053094;28;20213;-51
2022/09/14 02:04:35;;;;;;;6.07;2.10;;;15.70;99.90;;;;;;5052520;28;20749;-49
2022/09/14 02:07:02;;;;;;;9.67;2.03;;;15.60;99.90;;;;;;5052673;28;20225;-50
2022/09/14 02:09:29;;;;;;;4.03;1.73;;;15.60;1.00;;;;;;5052966;28;20264;-49
2022/09/14 02:11:59;;;;;;;8.07;1.63;;;15.70;99.90;;;;;;5052700;28;20202;-51
2022/09/14 02:14:28;;;;;;;6.60;1.87;;;15.60;99.90;;;;;;5052750;28;20202;-54
2022/09/14 02:16:55;;;;;;;6.60;1.97;;;15.60;99.90;;;;;;5052602;28;20604;-54
2022/09/14 02:19:24;;;;;;;7.60;1.73;;;15.50;99.90;;;;;;5052820;28;20205;-51
2022/09/14 02:21:51;;;;;;;5.10;1.77;;;15.30;1.00;;;;;;5052771;28;20217;-56
2022/09/14 02:24:18;;;;;;;6.20;1.67;;;15.30;20.90;;;;;;5052449;28;20676;-53
2022/09/14 02:26:46;;;;;;;6.90;1.73;;;15.30;99.90;;;;;;5052017;28;20688;-51
2022/09/14 02:29:13;;;;;;;12.47;2.10;;;15.30;99.90;;;;;;5052407;28;20665;-50
2022/09/14 02:31:53;;;;;;;6.87;2.13;;;15.40;99.90;;;;;;5052770;28;20559;-56
2022/09/14 02:34:30;;;;;;;5.13;1.73;;;15.30;99.90;;;;;;5052310;28;20215;-57
2022/09/14 02:37:04;;;;;;;5.93;1.80;;;15.30;99.90;;;;;;5052025;28;20625;-55
2022/09/14 02:39:39;;;;;;;8.37;2.10;;;15.20;99.90;;;;;;5052174;28;20818;-54
2022/09/14 02:42:16;;;;;;;9.27;1.93;;;15.20;1.00;;;;;;5051916;28;20213;-53
2022/09/14 02:44:51;;;;;;;5.57;2.40;;;15.20;1.00;;;;;;5052534;28;20213;-51
2022/09/14 02:47:25;;;;;;;5.07;2.00;;;15.20;1.00;;;;;;5052085;28;20298;-52
2022/09/14 02:49:58;;;;;;;6.07;1.90;;;15.20;1.00;;;;;;5052038;28;20262;-55
2022/09/14 02:52:32;;;;;;;2.43;1.60;;;15.20;1.00;;;;;;5052210;28;20650;-56
2022/09/14 02:55:05;;;;;;;8.17;2.30;;;15.30;1.00;;;;;;5052124;28;20345;-55
2022/09/14 02:57:31;;;;;;;6.00;1.67;;;15.20;1.00;;;;;;5051965;28;20685;-55
2022/09/14 02:59:58;;;;;;;4.43;1.67;;;15.20;1.00;;;;;;5051863;28;20205;-56
2022/09/14 03:02:26;;;;;;;6.30;1.77;;;15.20;1.00;;;;;;5051841;28;20205;-56
2022/09/14 03:04:53;;;;;;;6.33;2.13;;;15.20;1.00;;;;;;5051844;28;20579;-56
2022/09/14 03:07:19;;;;;;;10.97;2.13;;;15.20;1.00;;;;;;5051611;28;20580;-55
2022/09/14 03:09:46;;;;;;;5.67;2.17;;;15.20;1.00;;;;;;5052094;28;20206;-49
2022/09/14 03:12:13;;;;;;;10.07;1.90;;;15.20;1.00;;;;;;5051666;28;20700;-51
2022/09/14 03:14:39;;;;;;;5.57;1.97;;;15.20;1.00;;;;;;5051399;28;20209;-55
2022/09/14 03:17:06;;;;;;;6.07;1.90;;;15.20;3.80;;;;;;5051558;28;20202;-53
2022/09/14 03:19:34;;;;;;;7.00;2.00;;;15.20;22.70;;;;;;5051713;28;20214;-52
2022/09/14 03:22:01;;;;;;;7.17;2.10;;;15.20;30.20;;;;;;5051704;28;20205;-57
2022/09/14 03:24:28;;;;;;;12.10;2.20;;;15.30;35.90;;;;;;5051737;28;20213;-53
2022/09/14 03:26:54;;;;;;;6.93;2.00;;;15.30;35.30;;;;;;5051413;28;20229;-51
2022/09/14 03:29:21;;;;;;;7.67;1.93;;;15.30;33.30;;;;;;5051429;28;20675;-54
2022/09/14 03:31:48;;;;;;;7.47;2.53;;;15.30;38.70;;;;;;5051794;28;20213;-49
2022/09/14 03:34:14;;;;;;;3.33;1.73;;;15.20;55.30;;;;;;5051658;28;20206;-50
2022/09/14 03:36:42;;;;;;;9.00;2.17;;;15.10;76.90;;;;;;5051422;28;20221;-54
2022/09/14 03:39:09;;;;;;;7.03;2.40;;;15.00;99.90;;;;;;5051198;28;20225;-55
2022/09/14 03:41:36;;;;;;;11.27;2.60;;;14.90;99.90;;;;;;5051475;28;20260;-52
2022/09/14 03:44:02;;;;;;;5.40;2.20;;;14.80;99.90;;;;;;5051414;28;20259;-53
2022/09/14 03:46:29;;;;;;;10.17;2.40;;;14.70;99.90;;;;;;5051282;28;20283;-52
2022/09/14 03:48:56;;;;;;;7.13;2.10;;;14.60;99.90;;;;;;5051541;28;20554;-56
2022/09/14 03:51:23;;;;;;;7.07;2.30;;;14.60;99.90;;;;;;5051569;28;20260;-56
2022/09/14 03:53:51;;;;;;;6.30;2.30;;;14.70;99.90;;;;;;5051306;28;20265;-55
2022/09/14 03:56:21;;;;;;;12.33;3.20;;;14.70;99.90;;;;;;5050994;28;20268;-57
2022/09/14 03:58:48;;;;;;;4.10;2.33;;;14.70;99.90;;;;;;5051432;28;20216;-55
2022/09/14 04:01:16;;;;;;;8.27;2.67;;;14.70;99.90;;;;;;5051513;28;20673;-54
2022/09/14 04:03:44;;;;;;;7.07;2.60;;;14.70;99.90;;;;;;5054299;28;20210;-55
2022/09/14 04:06:11;;;;;;;4.90;2.57;;;14.60;99.90;;;;;;5054710;28;20239;-62
2022/09/14 04:08:39;;;;;;;7.40;2.33;;;14.60;99.90;;;;;;5055053;28;20271;-61
2022/09/14 04:11:09;;;;;;;8.60;2.90;;;14.60;99.90;;;;;;5054908;28;20205;-57
2022/09/14 04:13:36;;;;;;;9.07;2.63;;;14.60;99.90;;;;;;5055243;28;20206;-49
2022/09/14 04:16:03;;;;;;;10.63;3.13;;;14.60;99.90;;;;;;5054683;28;20275;-55
2022/09/14 04:18:30;;;;;;;9.27;2.80;;;14.50;99.90;;;;;;5055023;28;20275;-55
2022/09/14 04:20:58;;;;;;;6.40;2.70;;;14.50;99.90;;;;;;5054748;28;20205;-57
2022/09/14 04:23:25;;;;;;;6.73;2.73;;;14.50;99.90;;;;;;5054834;28;20201;-55
2022/09/14 04:25:52;;;;;;;8.90;3.17;;;14.50;99.90;;;;;;5054612;28;20221;-55
2022/09/14 04:28:21;;;;;;;10.63;3.33;;;14.50;99.90;;;;;;5054966;28;20205;-55
2022/09/14 04:30:55;;;;;;;8.87;2.97;;;14.40;99.90;;;;;;5054741;28;20581;-54
2022/09/14 04:33:22;;;;;;;7.70;2.93;;;14.40;99.90;;;;;;5054612;28;20746;-54
2022/09/14 04:35:57;;;;;;;7.53;3.40;;;14.40;99.90;;;;;;5054355;28;20229;-56
2022/09/14 04:38:24;;;;;;;6.67;3.40;;;14.40;99.90;;;;;;5054737;28;20278;-54
2022/09/14 04:40:51;;;;;;;8.57;3.60;;;14.40;99.90;;;;;;5054557;28;20215;-59
2022/09/14 04:43:19;;;;;;;11.90;3.73;;;14.50;99.90;;;;;;5052627;28;20730;-55
2022/09/14 04:45:46;;;;;;;9.83;3.70;;;14.50;99.90;;;;;;5052954;28;20222;-54
2022/09/14 04:48:12;;;;;;;10.97;3.17;;;14.50;99.90;;;;;;5054456;28;20230;-51
2022/09/14 04:50:39;;;;;;;8.70;3.20;;;14.60;99.90;;;;;;5053797;28;20217;-56
2022/09/14 04:53:06;;;;;;;4.63;2.83;;;14.50;99.90;;;;;;5054390;28;20210;-55
2022/09/14 04:55:32;;;;;;;12.13;3.63;;;14.40;99.90;;;;;;5053900;28;20838;-55
2022/09/14 04:57:59;;;;;;;7.70;3.73;;;14.40;99.90;;;;;;5053279;28;20811;-54
2022/09/14 05:00:27;;;;;;;12.00;4.23;;;14.40;99.90;;;;;;5053972;28;20255;-54
2022/09/14 05:02:54;;;;;;;11.30;4.00;;;14.40;99.90;;;;;;5053669;28;20259;-51
2022/09/14 05:05:20;;;;;;;14.37;3.73;;;14.40;99.90;;;;;;5053680;28;20263;-52
2022/09/14 05:07:47;;;;;;;9.13;3.80;;;14.40;99.90;;;;;;5053280;28;20226;-50
2022/09/14 05:10:14;;;;;;;14.70;4.00;;;14.50;99.90;;;;;;5053918;28;20201;-52
2022/09/14 05:12:40;;;;;;;7.57;3.80;;;14.50;99.90;;;;;;5053947;28;20634;-57
2022/09/14 05:15:08;;;;;;;11.80;3.40;;;14.50;99.90;;;;;;5056007;28;20276;-63
2022/09/14 05:17:36;;;;;;;9.83;3.67;;;14.50;99.90;;;;;;5055225;28;20221;-58
2022/09/14 05:20:03;;;;;;;9.20;3.93;;;14.50;99.90;;;;;;5053810;28;20213;-59
2022/09/14 05:22:30;;;;;;;9.53;3.90;;;14.60;99.90;;;;;;5053566;28;20237;-59
2022/09/14 05:24:57;;;;;;;8.97;3.83;;;14.60;99.90;;;;;;5052896;28;20259;-58
2022/09/14 05:27:23;;;;;;;11.60;3.90;;;14.60;99.90;;;;;;5053060;28;20225;-58
2022/09/14 05:29:50;;;;;;;8.03;3.67;;;14.60;99.90;;;;;;5052998;28;20599;-58
2022/09/14 05:32:16;;;;;;;12.63;3.43;;;14.70;99.90;;;;;;5053196;28;20252;-60
2022/09/14 05:34:44;;;;;;;7.40;3.50;;;14.80;99.90;;;;;;5053156;28;20285;-60
2022/09/14 05:37:11;;;;;;;8.60;4.73;;;14.70;99.90;;;;;;5052946;28;20664;-56
2022/09/14 05:39:38;;;;;;;7.97;3.33;;;14.70;99.90;;;;;;5052944;28;20387;-58
2022/09/14 05:42:05;;;;;;;7.53;3.40;;;14.70;99.90;;;;;;5053140;28;20630;-59
2022/09/14 05:44:31;;;;;;;12.07;3.97;;;14.50;99.90;;;;;;5052810;28;20741;-59
2022/09/14 05:46:58;;;;;;;6.93;3.60;;;14.50;99.90;;;;;;5042930;28;20225;-61
2022/09/14 05:49:24;;;;;;;9.13;3.80;;;14.40;99.90;;;;;;5050548;28;20205;-62
2022/09/14 05:51:52;;;;;;;9.13;3.30;;;14.30;99.90;;;;;;5052116;28;20209;-62
2022/09/14 05:54:19;;;;;;;10.43;3.77;;;14.20;99.90;;;;;;5052347;28;20733;-63
2022/09/14 05:56:46;;;;;;;8.13;3.77;;;14.20;99.90;;;;;;5051472;28;20221;-62
2022/09/14 05:59:13;;;;;;;8.07;4.20;;;14.10;99.90;;;;;;5051628;28;20267;-62
2022/09/14 06:01:40;;;;;;;3.90;2.70;;;14.00;99.90;;;;;;5052076;28;20275;-61
2022/09/14 06:04:06;;;;;;;8.20;3.77;;;14.00;99.90;;;;;;5052300;28;20252;-62
2022/09/14 06:06:33;;;;;;;12.27;3.73;;;14.00;99.90;;;;;;5051847;28;20287;-61
2022/09/14 06:09:02;;;;;;;13.50;4.37;;;13.90;99.90;;;;;;5051344;28;20638;-61
2022/09/14 06:11:31;;;;;;;8.23;3.83;;;13.90;99.90;;;;;;5051953;28;20209;-61
2022/09/14 06:13:58;;;;;;;10.13;4.27;;;13.90;99.90;;;;;;5051554;28;20208;-61
2022/09/14 06:16:26;;;;;;;11.07;4.27;;;13.90;99.90;;;;;;5051923;28;20631;-55
2022/09/14 06:18:54;;;;;;;10.67;4.10;;;13.90;99.90;;;;;;5051363;28;20239;-55
2022/09/14 06:21:21;;;;;;;11.23;4.23;;;13.90;99.90;;;;;;5051868;28;20279;-56
2022/09/14 06:23:49;;;;;;;10.90;4.97;;;13.90;99.90;;;;;;5051949;28;20271;-59
2022/09/14 06:26:17;;;;;;;15.87;4.60;;;13.90;99.90;;;;;;5050251;28;20221;-62
2022/09/14 06:28:44;;;;;;;9.67;4.43;;;14.00;99.90;;;;;;5051665;28;20256;-61
2022/09/14 06:31:13;;;;;;;14.33;5.47;;;14.00;99.90;;;;;;5051358;28;20728;-62
2022/09/14 06:33:44;;;;;;;10.03;4.73;;;14.10;99.90;;;;;;5051683;28;20209;-61
2022/09/14 06:36:13;;;;;;;10.00;5.00;;;14.20;99.90;;;;;;5051497;28;20221;-61
2022/09/14 06:38:41;;;;;;;13.50;7.50;;;14.20;99.90;;;;;;5051108;28;20202;-62
2022/09/14 06:41:09;;;;;;;12.50;5.30;;;14.20;99.90;;;;;;5050238;28;20208;-59
2022/09/14 06:43:39;;;;;;;14.37;7.63;;;14.20;99.90;;;;;;5049913;28;20214;-64
2022/09/14 06:46:07;;;;;;;10.33;4.77;;;14.20;99.90;;;;;;5051555;28;20225;-61
2022/09/14 06:48:36;;;;;;;8.67;5.27;;;14.20;99.90;;;;;;5050759;28;20263;-59
2022/09/14 06:51:13;;;;;;;10.97;4.73;;;14.10;99.90;;;;;;5051217;28;20221;-60
2022/09/14 06:53:39;;;;;;;10.50;4.80;;;14.10;99.90;;;;;;5051049;28;20292;-59
2022/09/14 06:56:06;;;;;;;12.43;5.17;;;14.10;99.90;;;;;;5051099;28;20324;-58
2022/09/14 06:58:33;;;;;;;8.97;5.30;;;14.00;99.90;;;;;;5050553;28;20333;-61
2022/09/14 07:01:02;;;;;;;9.53;5.20;;;14.10;99.90;;;;;;5050948;28;20746;-61
2022/09/14 07:03:30;;;;;;;15.47;5.13;;;14.10;99.90;;;;;;5051164;28;20262;-61
2022/09/14 07:06:02;;;;;;;15.67;5.03;;;14.10;99.90;;;;;;5050319;28;20237;-60
2022/09/14 07:08:29;;;;;;;10.93;5.43;;;14.10;99.90;;;;;;5051139;28;20229;-60
2022/09/14 07:10:57;;;;;;;8.80;5.03;;;14.10;99.90;;;;;;5050567;28;20210;-59
2022/09/14 07:13:23;;;;;;;10.43;5.03;;;14.00;99.90;;;;;;5050995;28;20209;-61
2022/09/14 07:15:51;;;;;;;12.50;5.47;;;14.00;99.90;;;;;;5050478;28;20359;-59
2022/09/14 07:18:19;;;;;;;8.60;5.40;;;14.00;99.90;;;;;;5050690;28;20198;-61
2022/09/14 07:20:45;;;;;;;20.53;8.10;;;13.90;99.90;;;;;;5050734;28;20228;-61
2022/09/14 07:23:12;;;;;;;8.07;5.13;;;13.90;99.90;;;;;;5050904;28;20589;-59
2022/09/14 07:25:39;;;;;;;17.20;7.20;;;13.80;99.90;;;;;;5051183;28;20629;-60
2022/09/14 07:28:06;;;;;;;10.27;5.07;;;13.90;99.90;;;;;;5050385;28;20316;-60
2022/09/14 07:30:36;;;;;;;10.03;6.00;;;13.80;99.90;;;;;;5043639;28;20206;-60
2022/09/14 07:33:03;;;;;;;11.50;5.97;;;13.80;99.90;;;;;;5047461;28;20460;-61
2022/09/14 07:35:31;;;;;;;10.77;6.00;;;13.80;99.90;;;;;;5050920;28;20236;-61
2022/09/14 07:37:58;;;;;;;13.03;5.57;;;13.90;99.90;;;;;;5053570;28;20205;-60
2022/09/14 07:40:25;;;;;;;9.73;5.33;;;14.00;99.90;;;;;;5055184;28;20644;-62
2022/09/14 07:42:52;;;;;;;8.80;5.90;;;14.00;99.90;;;;;;5054896;28;20216;-63
2022/09/14 07:45:19;;;;;;;13.27;6.33;;;13.90;99.90;;;;;;5054219;28;20229;-63
2022/09/14 07:47:46;;;;;;;13.33;5.93;;;14.00;99.90;;;;;;5054025;28;20221;-63
2022/09/14 07:50:13;;;;;;;13.87;5.97;;;13.90;99.90;;;;;;5054579;28;20209;-63
2022/09/14 07:52:41;;;;;;;12.13;6.17;;;13.80;99.90;;;;;;5055033;28;20237;-62
2022/09/14 07:55:11;;;;;;;8.17;5.97;;;13.70;99.90;;;;;;5054505;28;20255;-61
2022/09/14 07:57:38;;;;;;;12.53;5.87;;;13.70;99.90;;;;;;5053955;28;20210;-60
2022/09/14 08:00:05;;;;;;;13.17;6.33;;;13.70;99.90;;;;;;5051962;28;20204;-56
2022/09/14 08:02:33;;;;;;;16.50;6.00;;;13.70;99.90;;;;;;5054376;28;20237;-57
2022/09/14 08:05:00;;;;;;;12.73;6.50;;;13.70;99.90;;;;;;5054496;28;20237;-56
2022/09/14 08:07:27;;;;;;;9.47;6.00;;;13.70;99.90;;;;;;5053768;28;20274;-58
2022/09/14 08:09:55;;;;;;;11.13;5.80;;;13.70;99.90;;;;;;5054435;28;20213;-58
2022/09/14 08:12:21;;;;;;;11.27;5.13;;;13.60;99.90;;;;;;5054047;28;20219;-57
2022/09/14 08:14:49;;;;;;;8.80;5.40;;;13.60;99.90;;;;;;5054000;28;20208;-60
2022/09/14 08:17:16;;;;;;;15.47;6.17;;;13.60;99.90;;;;;;5053826;28;20241;-60
2022/09/14 08:19:43;;;;;;;10.50;6.30;;;13.50;99.90;;;;;;5054005;28;20679;-67
2022/09/14 08:22:09;;;;;;;15.57;6.77;;;13.40;99.90;;;;;;5054310;28;20208;-64
2022/09/14 08:24:36;;;;;;;14.17;7.33;;;13.40;99.90;;;;;;5054003;28;20723;-64
2022/09/14 08:27:04;;;;;;;15.23;6.87;;;13.40;99.90;;;;;;5053578;28;20591;-63
2022/09/14 08:29:31;;;;;;;12.67;6.50;;;13.40;99.90;;;;;;5053382;28;20225;-59
2022/09/14 08:31:57;;;;;;;12.63;7.27;;;13.40;99.90;;;;;;5052954;28;20208;-58
2022/09/14 08:34:24;;;;;;;16.97;7.63;;;13.40;99.90;;;;;;5046239;28;20267;-59
2022/09/14 08:36:51;;;;;;;13.53;8.90;;;13.40;99.90;;;;;;5052313;28;20233;-59
2022/09/14 08:39:18;;;;;;;11.63;7.77;;;13.40;99.90;;;;;;5055014;28;20212;-58
2022/09/14 08:41:52;;;;;;;17.83;7.80;;;13.40;99.90;;;;;;5056149;28;20678;-59
2022/09/14 08:44:25;;;;;;;18.80;9.33;;;13.40;99.90;;;;;;5057079;28;20235;-60
2022/09/14 08:46:56;;;;;;;16.10;9.10;;;13.40;99.90;;;;;;5053069;28;20228;-58
2022/09/14 08:49:35;;;;;;;14.50;9.33;;;13.40;99.90;;;;;;5052839;28;20230;-59
2022/09/14 08:52:02;;;;;;;15.37;7.80;;;13.50;99.90;;;;;;5053692;28;20608;-55
2022/09/14 08:54:30;;;;;;;14.43;8.10;;;13.50;99.90;;;;;;5053387;28;20216;-58
2022/09/14 08:57:03;;;;;;;17.47;7.73;;;13.40;99.90;;;;;;5052556;28;20278;-58
2022/09/14 08:59:42;;;;;;;12.47;7.40;;;13.40;99.90;;;;;;5053277;28;20720;-59
2022/09/14 09:02:25;;;;;;;17.50;8.00;;;13.40;99.90;;;;;;5053529;28;20246;-59
2022/09/14 09:04:56;;;;;;;11.60;7.23;;;13.40;99.90;;;;;;5053032;28;20270;-60
2022/09/14 09:07:32;;;;;;;12.30;7.17;;;13.50;99.90;;;;;;5053000;28;20291;-57
2022/09/14 09:10:00;;;;;;;9.57;6.47;;;13.50;99.90;;;;;;5053125;28;20556;-57
2022/09/14 09:12:35;;;;;;;11.70;6.63;;;13.50;99.90;;;;;;5053269;28;20586;-57
2022/09/14 09:15:14;;;;;;;11.27;6.90;;;13.60;99.90;;;;;;5052715;28;20232;-58
2022/09/14 09:17:45;;;;;;;8.77;6.33;;;13.50;99.90;;;;;;5053033;28;20675;-55
2022/09/14 09:20:15;;;;;;;8.43;6.40;;;13.50;99.90;;;;;;5033038;28;20268;-56
2022/09/14 09:22:45;;;;;;;7.97;6.33;;;13.50;99.90;;;;;;5033389;28;20216;-55
2022/09/14 09:25:23;;;;;;;10.60;5.63;;;13.50;99.90;;;;;;5032581;28;20287;-52
2022/09/14 09:27:50;;;;;;;9.93;5.60;;;13.60;99.90;;;;;;5032693;28;20214;-58
2022/09/14 09:30:18;;;;;;;9.63;5.67;;;13.60;99.90;;;;;;5033053;28;20209;-51
2022/09/14 09:32:45;;;;;;;7.37;4.83;;;13.60;99.90;;;;;;5032736;28;20209;-55
2022/09/14 09:35:17;;;;;;;8.30;4.50;;;13.70;99.90;;;;;;5032827;28;20237;-55
2022/09/14 09:37:43;;;;;;;9.10;5.13;;;13.70;99.90;;;;;;5038500;28;20252;-52
2022/09/14 09:40:19;;;;;;;7.73;5.00;;;13.70;99.90;;;;;;5052566;28;20209;-55
2022/09/14 09:43:08;;;;;;;8.90;4.47;;;13.70;99.90;;;;;;5052140;28;20746;-55
2022/09/14 09:45:49;;;;;;;7.67;4.57;;;13.70;99.90;;;;;;5052121;28;20723;-56
2022/09/14 09:48:19;;;;;;;7.10;4.03;;;13.70;99.90;;;;;;5051926;28;20703;-55
2022/09/14 09:50:50;;;;;;;8.00;3.93;;;13.70;99.90;;;;;;5052133;28;20213;-51
2022/09/14 09:53:20;;;;;;;9.23;5.00;;;13.70;99.90;;;;;;5052268;28;20219;-53
2022/09/14 09:55:49;;;;;;;7.07;4.90;;;13.70;99.90;;;;;;5052286;28;20224;-62
2022/09/14 09:58:27;;;;;;;7.10;4.20;;;13.70;99.90;;;;;;5052132;28;20208;-56
2022/09/14 10:01:02;;;;;;;9.37;4.73;;;13.70;99.90;;;;;;5050699;28;20205;-53
2022/09/14 10:03:33;;;;;;;6.73;4.03;;;13.60;99.90;;;;;;5052397;28;20235;-54
2022/09/14 10:06:02;;;;;;;9.43;4.83;;;13.60;99.90;;;;;;5051334;28;20302;-53
2022/09/14 10:08:33;;;;;;;7.67;4.37;;;13.60;99.90;;;;;;5052200;28;20232;-59
2022/09/14 10:11:01;;;;;;;5.47;4.10;;;13.60;99.90;;;;;;5051665;28;20209;-59
2022/09/14 10:13:31;;;;;;;7.73;5.20;;;13.70;99.90;;;;;;5051798;28;20258;-57
2022/09/14 10:16:16;;;;;;;8.43;5.37;;;13.70;99.90;;;;;;5051393;28;20287;-54
2022/09/14 10:18:45;;;;;;;6.13;4.73;;;13.60;99.90;;;;;;5052111;28;20209;-49
2022/09/14 10:21:20;;;;;;;10.87;5.27;;;13.40;99.90;;;;;;5088606;28;20943;-55
2022/09/14 10:24:03;;;;;;;8.67;4.10;;;13.40;99.90;;;;;;5088192;28;20671;-54
2022/09/14 10:26:34;;;;;;;10.00;5.17;;;13.30;99.90;;;;;;5072840;28;20232;-54
2022/09/14 10:29:35;;;;;;;8.20;4.43;;;13.20;99.90;;;;;;5068136;28;20251;-51
2022/09/14 10:32:11;;;;;;;6.27;4.57;;;13.30;99.90;;;;;;5068385;28;20248;-57
2022/09/14 10:34:38;;;;;;;9.10;4.47;;;13.30;99.90;;;;;;5067665;28;20243;-53
2022/09/14 10:37:16;;;;;;;5.77;4.37;;;13.30;99.90;;;;;;5067949;28;20257;-55
2022/09/14 10:39:48;;;;;;;6.90;4.20;;;13.20;99.90;;;;;;5065878;28;20285;-55
2022/09/14 10:42:26;;;;;;;3.90;3.30;;;13.30;99.90;;;;;;5067504;28;20204;-60
2022/09/14 10:45:04;;;;;;;5.73;3.03;;;13.20;99.90;;;;;;5066446;28;20235;-62
2022/09/14 10:47:52;;;;;;;7.40;3.30;;;13.20;99.90;;;;;;5067552;28;20301;-62
2022/09/14 10:50:31;;;;;;;8.07;3.93;;;13.20;99.90;;;;;;5067854;28;20200;-62
2022/09/14 10:53:08;;;;;;;6.70;3.80;;;13.20;99.90;;;;;;5067497;28;20817;-61
2022/09/14 10:55:42;;;;;;;8.60;4.20;;;13.30;99.90;;;;;;5067621;28;20284;-62
2022/09/14 10:58:34;;;;;;;7.67;4.60;;;13.30;99.90;;;;;;5067625;28;20650;-59
2022/09/14 11:01:16;;;;;;;6.43;4.73;;;13.30;99.90;;;;;;5067594;28;20227;-62
2022/09/14 11:03:58;;;;;;;7.80;4.47;;;13.30;99.90;;;;;;5067685;28;20298;-62
2022/09/14 11:06:37;;;;;;;11.57;6.23;;;13.30;99.90;;;;;;5067235;28;20274;-63
2022/09/14 11:09:13;;;;;;;8.50;5.37;;;13.40;99.90;;;;;;5067365;28;20212;-58
2022/09/14 11:11:48;;;;;;;7.43;5.13;;;13.50;99.90;;;;;;5067488;28;20238;-60
2022/09/14 11:14:26;;;;;;;5.90;4.80;;;13.60;99.90;;;;;;5067299;28;20294;-53
2022/09/14 11:17:05;;;;;;;8.23;5.80;;;13.60;99.90;;;;;;5066783;28;20225;-56
2022/09/14 11:19:54;;;;;;;13.00;6.17;;;13.70;99.90;;;;;;5066861;28;20228;-55
2022/09/14 11:22:30;;;;;;;9.23;5.90;;;13.70;99.90;;;;;;5067089;28;20213;-57
2022/09/14 11:25:03;;;;;;;8.53;6.17;;;13.70;99.90;;;;;;5067239;28;20262;-60
2022/09/14 11:27:36;;;;;;;8.73;5.30;;;13.70;99.90;;;;;;5066917;28;20742;-57
2022/09/14 11:30:10;;;;;;;9.90;4.73;;;13.80;99.90;;;;;;5067051;28;20209;-58
2022/09/14 11:32:42;;;;;;;5.87;3.90;;;13.90;99.90;;;;;;5054195;28;20629;-58
2022/09/14 11:35:15;;;;;;;6.23;3.97;;;13.90;99.90;;;;;;5053910;28;20780;-57
2022/09/14 11:37:48;;;;;;;6.17;4.47;;;13.80;99.90;;;;;;5048801;28;20940;-61
2022/09/14 11:40:22;;;;;;;7.33;4.60;;;13.80;99.90;;;;;;5051350;28;20708;-55
2022/09/14 11:42:56;;;;;;;8.37;5.20;;;13.80;99.90;;;;;;5053652;28;20217;-58
2022/09/14 11:45:29;;;;;;;6.03;3.80;;;13.90;99.90;;;;;;5053504;28;20261;-59
2022/09/14 11:48:11;;;;;;;4.53;2.70;;;13.80;99.90;;;;;;5052993;28;20206;-53
2022/09/14 11:50:41;;;;;;;1.67;1.57;;;13.60;99.90;;;;;;5053560;28;20255;-57
2022/09/14 11:53:12;;;;;;;4.43;2.20;;;13.50;99.90;;;;;;5052932;28;20233;-53
2022/09/14 11:55:45;;;;;;;3.60;2.03;;;13.70;99.90;;;;;;5052999;28;20700;-57
2022/09/14 11:58:18;;;;;;;6.77;3.87;;;13.70;99.90;;;;;;5052389;28;20209;-56
2022/09/14 12:01:01;;;;;;;8.67;5.50;;;13.70;99.90;;;;;;5053189;28;20320;-58
2022/09/14 12:04:01;;;;;;;4.90;2.70;;;13.60;99.90;;;;;;5053151;28;20258;-57
2022/09/14 12:06:52;;;;;;;5.33;3.07;;;13.60;99.90;;;;;;5043891;28;20226;-58
2022/09/14 12:09:40;;;;;;;3.70;2.63;;;13.80;99.90;;;;;;5052835;28;20684;-54
2022/09/14 12:12:35;;;;;;;4.13;2.93;;;13.90;99.90;;;;;;5053907;28;20216;-61
2022/09/14 12:15:10;;;;;;;3.17;2.87;;;13.80;99.90;;;;;;5053640;28;20230;-64
2022/09/14 12:17:37;;;;;;;7.63;3.23;;;14.00;99.90;;;;;;5052868;28;20209;-64
2022/09/14 12:20:28;;;;;;;3.90;2.50;;;14.00;99.90;;;;;;5053045;28;20680;-64
2022/09/14 12:23:06;;;;;;;2.87;2.23;;;13.90;99.90;;;;;;5052956;28;20622;-63
2022/09/14 12:25:34;;;;;;;7.13;2.97;;;13.80;99.90;;;;;;5052903;28;20233;-64
2022/09/14 12:28:02;;;;;;;4.33;2.90;;;13.90;99.90;;;;;;5052138;28;20219;-64
2022/09/14 12:31:09;;;;;;;5.87;3.33;;;14.00;99.90;;;;;;5052907;28;20208;-64
2022/09/14 12:33:44;;;;;;;7.27;3.50;;;14.10;99.90;;;;;;5052541;28;20549;-60
2022/09/14 12:36:32;;;;;;;6.40;3.00;;;14.20;99.90;;;;;;5052180;28;20229;-61
2022/09/14 12:39:22;;;;;;;4.20;2.87;;;14.20;99.90;;;;;;5042663;28;20205;-61
2022/09/14 12:42:00;;;;;;;4.27;3.20;;;14.00;99.90;;;;;;5051032;28;20229;-62
2022/09/14 12:44:35;;;;;;;7.60;3.20;;;13.90;99.90;;;;;;5051553;28;20208;-61
2022/09/14 12:47:49;;;;;;;6.17;3.27;;;13.80;99.90;;;;;;5051976;28;20271;-64
2022/09/14 12:50:19;;;;;;;8.00;3.50;;;13.80;99.90;;;;;;5052384;28;20211;-65
2022/09/14 12:53:10;;;;;;;5.93;3.47;;;13.90;99.90;;;;;;5052652;28;20251;-64
2022/09/14 12:55:44;;;;;;;10.63;4.17;;;13.90;99.90;;;;;;5044729;28;20229;-64
2022/09/14 12:58:23;;;;;;;8.20;4.57;;;13.90;99.90;;;;;;5051858;28;20595;-64
2022/09/14 13:00:59;;;;;;;12.50;5.27;;;14.00;99.90;;;;;;5051711;28;20225;-58
2022/09/14 13:03:48;;;;;;;7.67;4.60;;;13.90;99.90;;;;;;5051416;28;20211;-60
2022/09/14 13:06:16;;;;;;;7.77;4.83;;;13.80;99.90;;;;;;5050108;28;20239;-63